createdAt,value
2018-06-19T00:03:32.804Z,2.83
2018-06-19T00:08:35.942Z,4.53
2018-06-19T00:13:39.056Z,5.90
2018-06-19T00:18:44.657Z,7.77
2018-06-19T00:23:47.859Z,5.00
2018-06-19T00:28:51.117Z,4.17
2018-06-19T00:33:54.350Z,3.60
2018-06-19T00:38:57.459Z,3.33
2018-06-19T00:44:01.161Z,3.97
2018-06-19T00:49:05.062Z,3.83
2018-06-19T00:54:08.131Z,3.00
2018-06-19T00:59:11.253Z,5.10
2018-06-19T01:04:14.371Z,3.77
2018-06-19T01:09:17.515Z,5.17
2018-06-19T01:14:20.669Z,3.30
2018-06-19T01:19:23.816Z,4.67
2018-06-19T01:24:26.929Z,3.73
2018-06-19T01:29:30.022Z,3.90
2018-06-19T01:34:33.145Z,4.37
2018-06-19T01:39:36.272Z,4.33
2018-06-19T01:44:39.436Z,4.40
2018-06-19T01:49:42.527Z,4.13
2018-06-19T01:54:45.675Z,4.43
2018-06-19T01:59:48.868Z,4.50
2018-06-19T02:04:51.993Z,5.20
2018-06-19T02:09:55.155Z,4.90
2018-06-19T02:14:58.251Z,4.10
2018-06-19T02:20:01.362Z,5.80
2018-06-19T02:25:04.995Z,6.97
2018-06-19T02:30:08.136Z,4.50
2018-06-19T02:35:11.284Z,4.57
2018-06-19T02:40:14.390Z,4.53
2018-06-19T02:45:18.219Z,4.17
2018-06-19T02:50:21.494Z,4.37
2018-06-19T02:55:24.605Z,5.50
2018-06-19T03:00:27.834Z,4.87
2018-06-19T03:05:32.060Z,4.40
2018-06-19T03:10:35.152Z,4.80
2018-06-19T03:15:38.310Z,6.33
2018-06-19T03:20:41.440Z,5.17
2018-06-19T03:25:45.528Z,5.20
2018-06-19T03:30:48.922Z,4.60
2018-06-19T03:35:52.363Z,5.07
2018-06-19T03:40:55.585Z,5.07
2018-06-19T03:45:58.843Z,5.10
2018-06-19T03:51:02.046Z,6.20
2018-06-19T03:56:05.161Z,4.90
2018-06-19T04:01:08.459Z,6.20
2018-06-19T04:06:11.791Z,5.90
2018-06-19T04:11:15.077Z,5.23
2018-06-19T04:16:18.169Z,5.80
2018-06-19T04:21:21.308Z,5.97
2018-06-19T04:26:26.599Z,6.13
2018-06-19T04:31:29.849Z,5.77
2018-06-19T04:36:33.055Z,7.00
2018-06-19T04:41:36.255Z,5.53
2018-06-19T04:46:39.430Z,5.60
2018-06-19T04:51:42.561Z,5.43
2018-06-19T04:56:45.747Z,5.53
2018-06-19T05:01:48.899Z,6.07
2018-06-19T05:06:52.092Z,6.00
2018-06-19T05:11:55.337Z,5.67
2018-06-19T05:16:58.485Z,5.47
2018-06-19T05:22:01.658Z,8.23
2018-06-19T05:27:04.985Z,6.03
2018-06-19T05:32:10.407Z,5.67
2018-06-19T05:37:13.622Z,7.10
2018-06-19T05:42:17.690Z,6.30
2018-06-19T05:47:20.823Z,5.13
2018-06-19T05:52:23.942Z,8.53
2018-06-19T05:57:27.102Z,7.70
2018-06-19T06:02:30.321Z,8.80
2018-06-19T06:07:33.491Z,9.07
2018-06-19T06:12:36.661Z,7.90
2018-06-19T06:17:40.016Z,10.13
2018-06-19T06:22:43.170Z,7.77
2018-06-19T06:27:46.305Z,9.38
2018-06-19T06:32:49.492Z,8.40
2018-06-19T06:37:52.608Z,10.17
2018-06-19T06:42:55.936Z,11.00
2018-06-19T06:47:59.282Z,8.70
2018-06-19T06:53:02.432Z,9.85
2018-06-19T06:58:05.637Z,8.83
2018-06-19T07:03:08.799Z,9.83
2018-06-19T07:08:11.913Z,8.50
2018-06-19T07:13:15.403Z,8.68
2018-06-19T07:18:18.519Z,8.48
2018-06-19T07:23:21.708Z,10.15
2018-06-19T07:28:25.161Z,9.70
2018-06-19T07:33:28.451Z,8.80
2018-06-19T07:38:31.647Z,8.25
2018-06-19T07:43:34.903Z,9.48
2018-06-19T07:48:38.066Z,9.05
2018-06-19T07:53:41.206Z,5.75
2018-06-19T07:58:44.331Z,8.58
2018-06-19T08:03:47.486Z,6.33
2018-06-19T08:08:50.649Z,11.22
2018-06-19T08:13:53.796Z,7.20
2018-06-19T08:18:56.971Z,5.08
2018-06-19T08:24:00.112Z,8.48
2018-06-19T08:29:03.449Z,7.33
2018-06-19T08:34:06.778Z,6.67
2018-06-19T08:39:09.920Z,4.80
2018-06-19T08:44:13.102Z,5.67
2018-06-19T08:49:16.266Z,4.20
2018-06-19T08:54:19.433Z,4.33
2018-06-19T08:59:22.563Z,4.03
2018-06-19T09:04:26.700Z,4.15
2018-06-19T09:09:29.926Z,4.42
2018-06-19T09:14:33.165Z,3.62
2018-06-19T09:19:37.261Z,7.00
2018-06-19T09:24:40.417Z,3.83
2018-06-19T09:29:43.623Z,4.08
2018-06-19T09:34:46.767Z,3.35
2018-06-19T09:39:49.996Z,4.42
2018-06-19T09:44:53.189Z,3.85
2018-06-19T09:49:56.407Z,4.12
2018-06-19T09:55:00.594Z,5.87
2018-06-19T10:00:05.132Z,4.10
2018-06-19T10:05:08.526Z,3.15
2018-06-19T10:10:12.064Z,4.50
2018-06-19T10:15:17.017Z,4.92
2018-06-19T10:20:21.994Z,4.93
2018-06-19T10:25:25.282Z,3.07
2018-06-19T10:30:28.601Z,4.73
2018-06-19T10:35:31.797Z,4.43
2018-06-19T10:40:34.947Z,3.17
2018-06-19T10:45:38.958Z,6.07
2018-06-19T10:50:43.881Z,5.73
2018-06-19T10:55:48.193Z,4.77
2018-06-19T11:00:53.134Z,8.13
2018-06-19T11:05:56.358Z,3.73
2018-06-19T11:11:01.404Z,3.00
2018-06-19T11:16:06.403Z,5.00
2018-06-19T11:21:10.150Z,4.17
2018-06-19T11:26:13.324Z,9.10
2018-06-19T11:31:16.719Z,4.73
2018-06-19T11:36:19.994Z,8.17
2018-06-19T11:41:23.204Z,4.80
2018-06-19T11:46:26.448Z,5.90
2018-06-19T11:51:30.807Z,3.33
2018-06-19T11:56:34.393Z,4.37
2018-06-19T12:01:37.630Z,4.23
2018-06-19T12:06:41.327Z,3.87
2018-06-19T12:11:44.422Z,5.77
2018-06-19T12:16:47.676Z,6.73
2018-06-19T12:21:50.935Z,4.20
2018-06-19T12:26:54.185Z,4.67
2018-06-19T12:31:57.840Z,5.27
2018-06-19T12:37:01.089Z,5.90
2018-06-19T12:42:04.312Z,4.70
2018-06-19T12:47:07.569Z,4.53
2018-06-19T12:52:21.878Z,4.00
2018-06-19T12:57:25.045Z,4.37
2018-06-19T13:02:28.151Z,5.83
2018-06-19T13:07:31.239Z,3.60
2018-06-19T13:13:47.421Z,3.93
2018-06-19T13:19:01.659Z,5.00
2018-06-19T13:24:04.906Z,5.17
2018-06-19T13:29:44.590Z,3.23
2018-06-19T13:34:47.753Z,4.57
2018-06-19T13:41:03.653Z,6.33
2018-06-19T13:46:06.827Z,4.67
2018-06-19T13:51:10.042Z,4.27
2018-06-19T13:57:24.574Z,3.77
2018-06-19T14:02:27.939Z,9.60
2018-06-19T14:07:31.123Z,5.87
2018-06-19T14:12:46.415Z,4.10
2018-06-19T14:17:49.550Z,4.27
2018-06-19T14:22:52.713Z,4.80
2018-06-19T14:27:55.856Z,4.17
2018-06-19T14:32:59.477Z,4.73
2018-06-19T14:38:03.201Z,7.00
2018-06-19T14:43:06.948Z,8.10
2018-06-19T14:48:10.130Z,6.87
2018-06-19T14:53:13.319Z,5.03
2018-06-19T14:58:16.525Z,5.23
2018-06-19T15:03:19.774Z,6.47
2018-06-19T15:08:23.053Z,4.63
2018-06-19T15:13:26.274Z,3.30
2018-06-19T15:18:29.608Z,3.03
2018-06-19T15:23:32.782Z,4.57
2018-06-19T15:28:36.089Z,5.73
2018-06-19T15:33:39.602Z,4.53
2018-06-19T15:38:42.959Z,8.13
2018-06-19T15:43:46.054Z,7.40
2018-06-19T15:48:49.202Z,6.17
2018-06-19T15:54:05.933Z,5.80
2018-06-19T15:59:11.252Z,5.27
2018-06-19T16:04:15.740Z,3.00
2018-06-19T16:09:20.949Z,5.43
2018-06-19T16:14:24.070Z,2.80
2018-06-19T16:19:27.232Z,2.47
2018-06-19T16:24:30.368Z,4.80
2018-06-19T16:29:34.837Z,5.53
2018-06-19T16:34:39.925Z,5.87
2018-06-19T16:39:44.362Z,4.43
2018-06-19T16:44:48.672Z,5.80
2018-06-19T16:49:53.331Z,6.70
2018-06-19T16:54:58.118Z,6.63
2018-06-19T17:00:01.702Z,7.30
2018-06-19T17:05:04.995Z,6.93
2018-06-19T17:10:08.389Z,7.60
2018-06-19T17:15:11.549Z,6.97
2018-06-19T17:20:14.683Z,5.40
2018-06-19T17:25:17.817Z,10.00
2018-06-19T17:30:21.550Z,3.00
2018-06-19T17:35:24.702Z,7.80
2018-06-19T17:40:27.898Z,3.80
2018-06-19T17:45:31.594Z,4.47
2018-06-19T17:50:35.309Z,3.90
2018-06-19T17:55:38.893Z,2.97
2018-06-19T18:00:42.515Z,4.63
2018-06-19T18:05:45.769Z,3.50
2018-06-19T18:10:49.029Z,3.27
2018-06-19T18:15:52.100Z,5.30
2018-06-19T18:20:55.968Z,5.63
2018-06-19T18:25:59.233Z,5.07
2018-06-19T18:31:02.504Z,2.93
2018-06-19T18:36:05.742Z,3.87
2018-06-19T18:41:09.165Z,3.50
2018-06-19T18:46:13.174Z,3.23
2018-06-19T18:51:16.913Z,3.63
2018-06-19T18:56:21.335Z,5.03
2018-06-19T19:01:24.886Z,4.40
2018-06-19T19:06:29.776Z,4.77
2018-06-19T19:11:34.542Z,4.43
2018-06-19T19:16:39.056Z,5.07
2018-06-19T19:21:43.994Z,4.97
2018-06-19T19:26:50.569Z,5.80
2018-06-19T19:31:55.632Z,4.13
2018-06-19T19:36:58.749Z,5.87
2018-06-19T19:42:02.047Z,5.73
2018-06-19T19:47:05.244Z,4.03
2018-06-19T19:52:10.578Z,5.20
2018-06-19T19:57:19.509Z,5.40
2018-06-19T20:02:26.216Z,6.27
2018-06-19T20:07:30.679Z,5.40
2018-06-19T20:12:33.883Z,6.07
2018-06-19T20:17:37.185Z,5.40
2018-06-19T20:22:41.057Z,5.17
2018-06-19T20:27:44.149Z,4.83
2018-06-19T20:32:47.619Z,7.23
2018-06-19T20:37:50.740Z,5.27
2018-06-19T20:42:54.258Z,5.27
2018-06-19T20:48:02.143Z,5.07
2018-06-19T20:53:08.056Z,5.73
2018-06-19T20:58:11.569Z,6.53
2018-06-19T21:03:14.718Z,5.50
2018-06-19T21:08:17.823Z,7.37
2018-06-19T21:13:21.187Z,5.27
2018-06-19T21:18:24.326Z,6.30
2018-06-19T21:23:27.433Z,6.73
2018-06-19T21:28:30.548Z,6.53
2018-06-19T21:33:34.029Z,6.30
2018-06-19T21:38:39.086Z,5.90
2018-06-19T21:43:42.268Z,6.43
2018-06-19T21:48:45.419Z,6.47
2018-06-19T21:53:48.557Z,7.53
2018-06-19T21:58:52.193Z,7.20
2018-06-19T22:03:55.297Z,7.93
2018-06-19T22:08:58.469Z,8.13
2018-06-19T22:14:01.708Z,9.60
2018-06-19T22:19:04.918Z,8.03
2018-06-19T22:24:08.117Z,8.50
2018-06-19T22:29:13.307Z,7.70
2018-06-19T22:34:16.405Z,9.40
2018-06-19T22:39:19.538Z,8.63
2018-06-19T22:44:22.626Z,9.20
2018-06-19T22:49:25.721Z,9.37
2018-06-19T22:54:28.857Z,9.30
2018-06-19T22:59:32.068Z,9.53
2018-06-19T23:04:35.180Z,10.10
2018-06-19T23:09:38.334Z,10.47
2018-06-19T23:14:41.456Z,9.93
2018-06-19T23:19:44.626Z,10.33
2018-06-19T23:24:47.754Z,10.83
2018-06-19T23:29:50.837Z,10.90
2018-06-19T23:34:54.017Z,10.43
2018-06-19T23:39:58.236Z,10.63
2018-06-19T23:45:01.425Z,10.90
2018-06-19T23:50:04.761Z,11.57
2018-06-19T23:55:07.950Z,9.57
